createdAt,value
2023-02-06T00:01:43.743Z,100.00
2023-02-06T00:04:12.662Z,100.00
2023-02-06T00:06:42.577Z,100.00
2023-02-06T00:09:11.648Z,100.00
2023-02-06T00:11:42.593Z,100.00
2023-02-06T00:14:11.456Z,100.00
2023-02-06T00:17:01.561Z,100.00
2023-02-06T00:19:33.347Z,100.00
2023-02-06T00:22:02.288Z,100.00
2023-02-06T00:24:31.438Z,100.00
2023-02-06T00:27:00.345Z,100.00
2023-02-06T00:29:29.457Z,100.00
2023-02-06T00:31:58.574Z,100.00
2023-02-06T00:34:27.510Z,100.00
2023-02-06T00:36:56.949Z,100.00
2023-02-06T00:39:27.398Z,100.00
2023-02-06T00:41:56.801Z,100.00
2023-02-06T00:44:26.126Z,100.00
2023-02-06T00:46:55.694Z,100.00
2023-02-06T00:49:25.005Z,100.00
2023-02-06T00:51:54.086Z,100.00
2023-02-06T00:54:23.329Z,100.00
2023-02-06T00:56:52.522Z,100.00
2023-02-06T00:59:21.808Z,100.00
2023-02-06T01:01:51.332Z,100.00
2023-02-06T01:04:20.594Z,100.00
2023-02-06T01:07:02.684Z,100.00
2023-02-06T01:09:33.907Z,100.00
2023-02-06T01:12:03.648Z,100.00
2023-02-06T01:14:32.961Z,100.00
2023-02-06T01:17:02.189Z,100.00
2023-02-06T01:19:31.958Z,100.00
2023-02-06T01:22:01.740Z,100.00
2023-02-06T01:24:31.077Z,100.00
2023-02-06T01:27:00.105Z,100.00
2023-02-06T01:29:29.385Z,100.00
2023-02-06T01:31:58.569Z,100.00
2023-02-06T01:34:27.644Z,100.00
2023-02-06T01:36:57.557Z,100.00
2023-02-06T01:39:27.161Z,100.00
2023-02-06T01:41:56.358Z,100.00
2023-02-06T01:44:26.841Z,100.00
2023-02-06T01:46:57.481Z,100.00
2023-02-06T01:49:31.879Z,100.00
2023-02-06T01:52:16.299Z,100.00
2023-02-06T01:54:46.933Z,100.00
2023-02-06T01:57:16.391Z,100.00
2023-02-06T01:59:47.478Z,100.00
2023-02-06T02:02:17.167Z,100.00
2023-02-06T02:04:46.618Z,100.00
2023-02-06T02:07:27.066Z,100.00
2023-02-06T02:09:57.040Z,100.00
2023-02-06T02:12:26.155Z,100.00
2023-02-06T02:14:55.859Z,100.00
2023-02-06T02:17:46.904Z,100.00
2023-02-06T02:20:44.584Z,100.00
2023-02-06T02:23:17.225Z,100.00
2023-02-06T02:25:59.124Z,100.00
2023-02-06T02:28:34.534Z,100.00
2023-02-06T02:31:34.833Z,100.00
2023-02-06T02:34:28.445Z,100.00
2023-02-06T02:37:08.036Z,100.00
2023-02-06T02:39:47.968Z,100.00
2023-02-06T02:42:28.773Z,100.00
2023-02-06T02:45:05.232Z,100.00
2023-02-06T02:47:43.707Z,100.00
2023-02-06T02:50:18.175Z,100.00
2023-02-06T02:52:48.218Z,100.00
2023-02-06T02:55:23.225Z,100.00
2023-02-06T02:58:00.445Z,100.00
2023-02-06T03:00:29.649Z,100.00
2023-02-06T03:02:58.650Z,100.00
2023-02-06T03:05:28.401Z,100.00
2023-02-06T03:08:12.712Z,100.00
2023-02-06T03:11:11.549Z,100.00
2023-02-06T03:13:45.617Z,100.00
2023-02-06T03:16:28.692Z,100.00
2023-02-06T03:19:19.860Z,100.00
2023-02-06T03:21:49.211Z,100.00
2023-02-06T03:24:21.050Z,100.00
2023-02-06T03:26:51.725Z,100.00
2023-02-06T03:29:21.242Z,100.00
2023-02-06T03:31:54.304Z,100.00
2023-02-06T03:34:44.548Z,100.00
2023-02-06T03:37:13.883Z,100.00
2023-02-06T03:39:42.971Z,100.00
2023-02-06T03:42:12.132Z,100.00
2023-02-06T03:44:44.023Z,100.00
2023-02-06T03:47:13.235Z,100.00
2023-02-06T03:49:42.754Z,100.00
2023-02-06T03:52:21.857Z,100.00
2023-02-06T03:54:59.708Z,100.00
2023-02-06T03:57:29.371Z,100.00
2023-02-06T03:59:58.793Z,100.00
2023-02-06T04:02:27.853Z,100.00
2023-02-06T04:04:57.212Z,100.00
2023-02-06T04:07:31.004Z,100.00
2023-02-06T04:10:00.075Z,100.00
2023-02-06T04:12:29.529Z,100.00
2023-02-06T04:14:58.589Z,100.00
2023-02-06T04:17:43.271Z,100.00
2023-02-06T04:20:17.247Z,100.00
2023-02-06T04:22:46.263Z,100.00
2023-02-06T04:25:15.328Z,100.00
2023-02-06T04:27:45.198Z,100.00
2023-02-06T04:30:14.576Z,100.00
2023-02-06T04:32:43.546Z,100.00
2023-02-06T04:35:12.593Z,100.00
2023-02-06T04:37:42.112Z,100.00
2023-02-06T04:40:12.011Z,100.00
2023-02-06T04:42:41.470Z,100.00
2023-02-06T04:45:10.684Z,100.00
2023-02-06T04:47:40.304Z,100.00
2023-02-06T04:50:11.076Z,100.00
2023-02-06T04:52:40.511Z,100.00
2023-02-06T04:55:09.667Z,100.00
2023-02-06T04:57:39.128Z,100.00
2023-02-06T05:00:09.691Z,100.00
2023-02-06T05:02:40.152Z,100.00
2023-02-06T05:05:09.704Z,100.00
2023-02-06T05:07:39.264Z,100.00
2023-02-06T05:10:09.747Z,100.00
2023-02-06T05:12:39.812Z,100.00
2023-02-06T05:15:09.365Z,100.00
2023-02-06T05:17:38.687Z,100.00
2023-02-06T05:20:08.961Z,100.00
2023-02-06T05:22:38.996Z,100.00
2023-02-06T05:25:08.265Z,100.00
2023-02-06T05:27:37.586Z,100.00
2023-02-06T05:30:07.502Z,100.00
2023-02-06T05:32:36.573Z,100.00
2023-02-06T05:35:06.028Z,100.00
2023-02-06T05:37:35.582Z,100.00
2023-02-06T05:40:06.671Z,100.00
2023-02-06T05:42:36.202Z,100.00
2023-02-06T05:45:05.830Z,100.00
2023-02-06T05:47:35.257Z,100.00
2023-02-06T05:50:04.565Z,100.00
2023-02-06T05:52:34.240Z,100.00
2023-02-06T05:55:03.273Z,100.00
2023-02-06T05:57:33.222Z,100.00
2023-02-06T06:00:02.861Z,100.00
2023-02-06T06:02:42.320Z,100.00
2023-02-06T06:05:11.606Z,100.00
2023-02-06T06:07:41.087Z,100.00
2023-02-06T06:10:10.477Z,100.00
2023-02-06T06:12:41.392Z,100.00
2023-02-06T06:15:10.966Z,100.00
2023-02-06T06:17:39.976Z,100.00
2023-02-06T06:20:09.569Z,100.00
2023-02-06T06:22:39.026Z,100.00
2023-02-06T06:25:08.413Z,100.00
2023-02-06T06:27:37.693Z,100.00
2023-02-06T06:30:07.209Z,100.00
2023-02-06T06:32:37.000Z,100.00
2023-02-06T06:35:06.692Z,100.00
2023-02-06T06:37:35.703Z,100.00
2023-02-06T06:40:05.523Z,100.00
2023-02-06T06:42:35.377Z,100.00
2023-02-06T06:45:05.110Z,100.00
2023-02-06T06:47:36.362Z,100.00
2023-02-06T06:50:06.561Z,100.00
2023-02-06T06:52:35.818Z,100.00
2023-02-06T06:55:05.109Z,100.00
2023-02-06T06:57:36.461Z,100.00
2023-02-06T07:00:06.396Z,100.00
2023-02-06T07:02:36.219Z,100.00
2023-02-06T07:05:05.787Z,100.00
2023-02-06T07:07:34.960Z,100.00
2023-02-06T07:10:04.932Z,100.00
2023-02-06T07:12:34.633Z,100.00
2023-02-06T07:15:04.051Z,100.00
2023-02-06T07:17:33.201Z,100.00
2023-02-06T07:20:02.681Z,100.00
2023-02-06T07:22:32.328Z,100.00
2023-02-06T07:25:01.494Z,100.00
2023-02-06T07:27:31.043Z,100.00
2023-02-06T07:30:00.329Z,100.00
2023-02-06T07:32:29.312Z,100.00
2023-02-06T07:34:58.486Z,100.00
2023-02-06T07:37:28.159Z,100.00
2023-02-06T07:39:57.549Z,100.00
2023-02-06T07:42:27.019Z,100.00
2023-02-06T07:45:00.739Z,100.00
2023-02-06T07:47:29.861Z,100.00
2023-02-06T07:49:59.864Z,100.00
2023-02-06T07:52:28.976Z,100.00
2023-02-06T07:54:58.120Z,100.00
2023-02-06T07:57:27.248Z,100.00
2023-02-06T07:59:56.221Z,100.00
2023-02-06T08:02:25.398Z,100.00
2023-02-06T08:04:54.411Z,100.00
2023-02-06T08:07:23.457Z,100.00
2023-02-06T08:09:52.587Z,100.00
2023-02-06T08:12:21.816Z,100.00
2023-02-06T08:14:50.825Z,100.00
2023-02-06T08:17:20.268Z,100.00
2023-02-06T08:19:49.606Z,100.00
2023-02-06T08:22:18.661Z,100.00
2023-02-06T08:24:48.109Z,100.00
2023-02-06T08:27:17.419Z,100.00
2023-02-06T08:29:46.673Z,100.00
2023-02-06T08:32:15.648Z,100.00
2023-02-06T08:34:45.163Z,100.00
2023-02-06T08:37:14.292Z,100.00
2023-02-06T08:39:43.653Z,100.00
2023-02-06T08:42:13.110Z,100.00
2023-02-06T08:44:41.948Z,100.00
2023-02-06T08:47:10.856Z,100.00
2023-02-06T08:49:40.058Z,99.76
2023-02-06T08:52:11.755Z,98.96
2023-02-06T08:54:40.638Z,98.79
2023-02-06T08:57:10.195Z,98.69
2023-02-06T08:59:39.123Z,98.09
2023-02-06T09:02:09.503Z,96.23
2023-02-06T09:04:39.455Z,94.94
2023-02-06T09:07:09.292Z,95.38
2023-02-06T09:09:38.369Z,95.32
2023-02-06T09:12:07.491Z,94.60
2023-02-06T09:14:36.358Z,93.40
2023-02-06T09:17:09.055Z,92.65
2023-02-06T09:19:38.005Z,92.04
2023-02-06T09:22:07.286Z,92.11
2023-02-06T09:24:36.325Z,92.10
2023-02-06T09:27:05.308Z,91.85
2023-02-06T09:29:35.517Z,90.78
2023-02-06T09:32:04.786Z,89.62
2023-02-06T09:34:34.274Z,89.71
2023-02-06T09:37:03.913Z,89.46
2023-02-06T09:39:33.198Z,88.11
2023-02-06T09:42:07.958Z,86.80
2023-02-06T09:44:46.141Z,86.03
2023-02-06T09:47:39.306Z,85.98
2023-02-06T09:50:17.364Z,85.18
2023-02-06T09:52:59.422Z,85.02
2023-02-06T09:55:34.037Z,85.24
2023-02-06T09:58:13.776Z,84.44
2023-02-06T10:00:51.397Z,84.91
2023-02-06T10:03:54.497Z,85.40
2023-02-06T10:06:32.996Z,85.54
2023-02-06T10:09:25.966Z,86.13
2023-02-06T10:12:00.726Z,85.44
2023-02-06T10:14:41.828Z,84.96
2023-02-06T10:17:27.567Z,85.15
2023-02-06T10:20:34.974Z,84.94
2023-02-06T10:23:10.790Z,81.72
2023-02-06T10:25:50.312Z,81.21
2023-02-06T10:28:29.822Z,81.09
2023-02-06T10:31:13.931Z,79.98
2023-02-06T10:34:05.682Z,80.30
2023-02-06T10:36:53.751Z,80.67
2023-02-06T10:39:45.640Z,80.68
2023-02-06T10:42:55.575Z,80.31
2023-02-06T10:45:36.424Z,80.37
2023-02-06T10:48:39.968Z,80.48
2023-02-06T10:51:36.010Z,80.93
2023-02-06T10:54:09.997Z,80.24
2023-02-06T10:56:41.630Z,79.71
2023-02-06T10:59:19.139Z,79.77
2023-02-06T11:01:48.392Z,79.73
2023-02-06T11:04:37.886Z,80.58
2023-02-06T11:07:18.723Z,81.12
2023-02-06T11:09:47.619Z,81.91
2023-02-06T11:12:38.695Z,82.11
2023-02-06T11:15:39.392Z,81.70
2023-02-06T11:18:11.903Z,81.14
2023-02-06T11:20:42.626Z,81.14
2023-02-06T11:23:19.937Z,81.35
2023-02-06T11:26:13.284Z,81.27
2023-02-06T11:29:00.278Z,81.44
2023-02-06T11:31:44.334Z,82.14
2023-02-06T11:34:22.626Z,82.70
2023-02-06T11:36:56.847Z,83.11
2023-02-06T11:39:37.788Z,83.42
2023-02-06T11:42:11.351Z,84.48
2023-02-06T11:44:42.289Z,85.10
2023-02-06T11:47:32.888Z,85.70
2023-02-06T11:50:14.034Z,86.74
2023-02-06T11:52:46.882Z,87.64
2023-02-06T11:55:28.863Z,88.27
2023-02-06T11:58:14.545Z,88.82
2023-02-06T12:00:53.236Z,88.40
2023-02-06T12:03:31.530Z,87.71
2023-02-06T12:06:12.791Z,87.28
2023-02-06T12:08:48.017Z,86.93
2023-02-06T12:11:23.443Z,86.64
2023-02-06T12:14:34.396Z,85.81
2023-02-06T12:17:20.530Z,85.59
2023-02-06T12:19:52.778Z,85.75
2023-02-06T12:22:24.035Z,85.45
2023-02-06T12:24:56.031Z,86.18
2023-02-06T12:27:39.554Z,86.34
2023-02-06T12:30:35.561Z,86.95
2023-02-06T12:33:32.198Z,86.69
2023-02-06T12:36:28.242Z,86.18
2023-02-06T12:39:06.541Z,86.34
2023-02-06T12:42:04.127Z,86.58
2023-02-06T12:44:40.740Z,86.61
2023-02-06T12:47:35.776Z,85.45
2023-02-06T12:50:45.696Z,84.95
2023-02-06T12:53:39.780Z,84.33
2023-02-06T12:56:17.719Z,83.69
2023-02-06T12:59:02.640Z,83.74
2023-02-06T13:02:11.183Z,84.18
2023-02-06T13:04:39.976Z,83.91
2023-02-06T13:07:14.402Z,83.54
2023-02-06T13:09:54.035Z,83.78
2023-02-06T13:12:27.901Z,83.31
2023-02-06T13:15:05.745Z,82.96
2023-02-06T13:17:36.952Z,83.47
2023-02-06T13:20:07.368Z,82.43
2023-02-06T13:22:47.258Z,81.64
2023-02-06T13:25:25.337Z,80.38
2023-02-06T13:27:55.008Z,79.87
2023-02-06T13:30:30.286Z,79.11
2023-02-06T13:33:18.224Z,78.71
2023-02-06T13:36:10.383Z,78.88
2023-02-06T13:38:39.282Z,79.42
2023-02-06T13:41:15.480Z,79.99
2023-02-06T13:43:51.909Z,80.55
2023-02-06T13:46:42.138Z,81.28
2023-02-06T13:49:16.721Z,81.18
2023-02-06T13:51:51.999Z,81.71
2023-02-06T13:54:43.855Z,81.93
2023-02-06T13:57:24.941Z,82.34
2023-02-06T14:00:06.754Z,83.03
2023-02-06T14:02:41.211Z,83.88
2023-02-06T14:05:22.155Z,84.03
2023-02-06T14:08:11.411Z,84.57
2023-02-06T14:10:53.328Z,84.70
2023-02-06T14:14:04.991Z,84.74
2023-02-06T14:16:58.914Z,85.60
2023-02-06T14:19:37.243Z,85.68
2023-02-06T14:22:17.078Z,85.55
2023-02-06T14:25:08.739Z,85.54
2023-02-06T14:28:16.944Z,85.88
2023-02-06T14:31:31.222Z,86.17
2023-02-06T14:34:29.192Z,86.51
2023-02-06T14:37:20.940Z,86.90
2023-02-06T14:39:57.720Z,86.79
2023-02-06T14:42:36.402Z,87.24
2023-02-06T14:45:06.938Z,87.09
2023-02-06T14:47:42.625Z,87.02
2023-02-06T14:50:30.908Z,87.17
2023-02-06T14:53:06.870Z,87.64
2023-02-06T14:55:40.475Z,87.70
2023-02-06T14:58:29.067Z,87.66
2023-02-06T15:01:12.150Z,87.58
2023-02-06T15:03:42.177Z,87.71
2023-02-06T15:06:34.275Z,87.89
2023-02-06T15:09:03.575Z,88.07
2023-02-06T15:11:32.987Z,88.23
2023-02-06T15:14:04.680Z,88.38
2023-02-06T15:16:46.532Z,88.64
2023-02-06T15:19:18.198Z,88.61
2023-02-06T15:21:47.645Z,88.89
2023-02-06T15:24:28.869Z,89.02
2023-02-06T15:27:07.674Z,89.13
2023-02-06T15:29:36.655Z,89.29
2023-02-06T15:32:08.409Z,88.93
2023-02-06T15:34:37.864Z,88.58
2023-02-06T15:37:22.955Z,88.85
2023-02-06T15:39:52.410Z,88.90
2023-02-06T15:42:21.947Z,88.76
2023-02-06T15:44:50.883Z,88.30
2023-02-06T15:47:20.672Z,88.39
2023-02-06T15:49:50.630Z,88.51
2023-02-06T15:52:43.236Z,88.35
2023-02-06T15:55:25.560Z,88.43
2023-02-06T15:57:55.396Z,88.34
2023-02-06T16:00:31.933Z,88.01
2023-02-06T16:03:03.304Z,87.84
2023-02-06T16:05:38.113Z,87.77
2023-02-06T16:08:13.501Z,87.48
2023-02-06T16:10:44.368Z,87.62
2023-02-06T16:13:17.443Z,87.38
2023-02-06T16:16:06.232Z,87.28
2023-02-06T16:18:37.203Z,87.36
2023-02-06T16:21:16.158Z,87.10
2023-02-06T16:23:48.814Z,87.16
2023-02-06T16:26:19.817Z,87.28
2023-02-06T16:29:10.921Z,87.29
2023-02-06T16:31:42.850Z,87.36
2023-02-06T16:34:22.358Z,87.65
2023-02-06T16:36:51.456Z,88.03
2023-02-06T16:39:22.006Z,88.49
2023-02-06T16:41:53.404Z,88.55
2023-02-06T16:44:22.199Z,88.95
2023-02-06T16:46:51.125Z,89.18
2023-02-06T16:49:21.234Z,89.46
2023-02-06T16:51:52.283Z,89.60
2023-02-06T16:54:27.536Z,89.81
2023-02-06T16:56:57.381Z,90.05
2023-02-06T16:59:26.117Z,90.60
2023-02-06T17:01:56.122Z,90.95
2023-02-06T17:04:24.842Z,91.81
2023-02-06T17:06:53.769Z,92.12
2023-02-06T17:09:23.560Z,92.20
2023-02-06T17:11:53.559Z,92.29
2023-02-06T17:14:24.623Z,92.74
2023-02-06T17:16:55.113Z,93.03
2023-02-06T17:19:26.270Z,93.74
2023-02-06T17:21:55.136Z,94.12
2023-02-06T17:24:24.034Z,94.21
2023-02-06T17:26:52.753Z,94.42
2023-02-06T17:29:21.693Z,94.22
2023-02-06T17:31:50.891Z,94.35
2023-02-06T17:34:19.707Z,94.48
2023-02-06T17:36:48.786Z,94.22
2023-02-06T17:39:17.643Z,94.24
2023-02-06T17:41:47.783Z,94.17
2023-02-06T17:44:20.492Z,94.06
2023-02-06T17:46:50.183Z,93.84
2023-02-06T17:49:18.956Z,94.25
2023-02-06T17:51:47.761Z,94.20
2023-02-06T17:54:16.724Z,93.89
2023-02-06T17:56:45.568Z,93.77
2023-02-06T17:59:14.696Z,93.65
2023-02-06T18:01:43.597Z,93.81
2023-02-06T18:04:13.506Z,94.05
2023-02-06T18:06:42.357Z,93.62
2023-02-06T18:09:11.006Z,93.37
2023-02-06T18:11:40.244Z,93.67
2023-02-06T18:14:09.333Z,93.68
2023-02-06T18:16:39.235Z,93.63
2023-02-06T18:19:08.159Z,93.89
2023-02-06T18:21:37.048Z,93.95
2023-02-06T18:24:06.393Z,93.96
2023-02-06T18:26:36.036Z,93.82
2023-02-06T18:29:05.751Z,93.97
2023-02-06T18:31:36.405Z,94.10
2023-02-06T18:34:08.241Z,94.06
2023-02-06T18:36:37.766Z,94.62
2023-02-06T18:39:07.624Z,94.98
2023-02-06T18:42:07.058Z,95.08
2023-02-06T18:44:42.083Z,94.85
2023-02-06T18:47:13.452Z,94.67
2023-02-06T18:49:42.289Z,95.26
2023-02-06T18:52:11.062Z,94.96
2023-02-06T18:54:40.570Z,94.78
2023-02-06T18:57:09.591Z,95.01
2023-02-06T18:59:38.784Z,94.98
2023-02-06T19:02:10.092Z,95.24
2023-02-06T19:04:40.929Z,95.90
2023-02-06T19:07:12.020Z,96.11
2023-02-06T19:09:41.065Z,96.15
2023-02-06T19:12:10.006Z,96.09
2023-02-06T19:14:40.392Z,96.26
2023-02-06T19:17:12.324Z,96.17
2023-02-06T19:19:41.745Z,96.53
2023-02-06T19:22:10.785Z,96.60
2023-02-06T19:24:42.829Z,96.45
2023-02-06T19:27:12.630Z,96.59
2023-02-06T19:29:41.826Z,96.61
2023-02-06T19:32:12.386Z,96.73
2023-02-06T19:34:42.426Z,97.02
2023-02-06T19:37:12.031Z,97.14
2023-02-06T19:39:43.548Z,97.54
2023-02-06T19:42:17.424Z,97.59
2023-02-06T19:44:46.462Z,97.66
2023-02-06T19:47:15.660Z,97.45
2023-02-06T19:49:44.719Z,97.52
2023-02-06T19:52:14.940Z,97.66
2023-02-06T19:54:44.056Z,97.87
2023-02-06T19:57:12.865Z,98.14
2023-02-06T19:59:42.178Z,98.19
2023-02-06T20:02:14.609Z,98.27
2023-02-06T20:04:43.512Z,98.26
2023-02-06T20:07:12.377Z,98.58
2023-02-06T20:09:42.333Z,98.92
2023-02-06T20:12:15.072Z,99.45
2023-02-06T20:14:45.206Z,99.66
2023-02-06T20:17:14.183Z,99.95
2023-02-06T20:19:43.512Z,100.00
2023-02-06T20:22:12.628Z,100.00
2023-02-06T20:24:42.024Z,100.00
2023-02-06T20:27:13.111Z,100.00
2023-02-06T20:29:43.695Z,100.00
2023-02-06T20:32:15.773Z,100.00
2023-02-06T20:34:44.757Z,100.00
2023-02-06T20:37:13.623Z,100.00
2023-02-06T20:39:42.278Z,100.00
2023-02-06T20:42:11.345Z,100.00
2023-02-06T20:44:40.204Z,100.00
2023-02-06T20:47:08.918Z,100.00
2023-02-06T20:49:37.993Z,100.00
2023-02-06T20:52:06.978Z,100.00
2023-02-06T20:54:37.753Z,100.00
2023-02-06T20:57:06.472Z,100.00
2023-02-06T20:59:35.971Z,100.00
2023-02-06T21:02:04.838Z,100.00
2023-02-06T21:04:34.735Z,100.00
2023-02-06T21:07:03.534Z,100.00
2023-02-06T21:09:32.566Z,100.00
2023-02-06T21:12:01.962Z,100.00
2023-02-06T21:14:32.410Z,100.00
2023-02-06T21:17:01.250Z,100.00
2023-02-06T21:19:30.253Z,100.00
2023-02-06T21:21:59.198Z,100.00
2023-02-06T21:24:28.139Z,100.00
2023-02-06T21:26:57.038Z,100.00
2023-02-06T21:29:25.917Z,100.00
2023-02-06T21:32:11.066Z,100.00
2023-02-06T21:34:42.490Z,100.00
2023-02-06T21:37:11.726Z,100.00
2023-02-06T21:39:41.781Z,100.00
2023-02-06T21:42:10.720Z,100.00
2023-02-06T21:44:39.945Z,100.00
2023-02-06T21:47:10.421Z,100.00
2023-02-06T21:49:40.891Z,100.00
2023-02-06T21:52:10.195Z,100.00
2023-02-06T21:54:38.973Z,100.00
2023-02-06T21:57:07.710Z,100.00
2023-02-06T21:59:38.316Z,100.00
2023-02-06T22:02:07.778Z,100.00
2023-02-06T22:04:36.578Z,100.00
2023-02-06T22:07:05.983Z,100.00
2023-02-06T22:09:34.872Z,100.00
2023-02-06T22:12:05.760Z,100.00
2023-02-06T22:14:35.372Z,100.00
2023-02-06T22:17:04.220Z,100.00
2023-02-06T22:19:35.386Z,100.00
2023-02-06T22:22:05.277Z,100.00
2023-02-06T22:24:34.485Z,100.00
2023-02-06T22:27:04.104Z,100.00
2023-02-06T22:29:33.169Z,100.00
2023-02-06T22:32:04.868Z,100.00
2023-02-06T22:34:34.825Z,100.00
2023-02-06T22:37:05.005Z,100.00
2023-02-06T22:39:35.532Z,100.00
2023-02-06T22:42:04.524Z,100.00
2023-02-06T22:44:34.093Z,100.00
2023-02-06T22:47:02.975Z,100.00
2023-02-06T22:49:32.155Z,100.00
2023-02-06T22:52:01.091Z,100.00
2023-02-06T22:54:30.636Z,100.00
2023-02-06T22:56:59.349Z,100.00
2023-02-06T22:59:28.305Z,100.00
2023-02-06T23:01:58.449Z,100.00
2023-02-06T23:04:35.153Z,100.00
2023-02-06T23:07:04.652Z,100.00
2023-02-06T23:09:35.981Z,100.00
2023-02-06T23:12:05.862Z,100.00
2023-02-06T23:14:35.788Z,100.00
2023-02-06T23:17:05.008Z,100.00
2023-02-06T23:19:35.657Z,100.00
2023-02-06T23:22:04.415Z,100.00
2023-02-06T23:24:34.057Z,100.00
2023-02-06T23:27:03.036Z,100.00
2023-02-06T23:29:32.202Z,100.00
2023-02-06T23:32:01.179Z,100.00
2023-02-06T23:34:31.012Z,100.00
2023-02-06T23:36:59.858Z,100.00
2023-02-06T23:39:29.254Z,100.00
2023-02-06T23:41:58.039Z,100.00
2023-02-06T23:44:27.141Z,100.00
2023-02-06T23:46:56.490Z,100.00
2023-02-06T23:49:25.415Z,100.00
2023-02-06T23:51:55.602Z,100.00
2023-02-06T23:54:24.436Z,100.00
2023-02-06T23:56:53.611Z,100.00
2023-02-06T23:59:22.575Z,100.00
